Independence — WDD6659 — position and weather

sailwx.info

Track history (hours):
 
Tides and Currents Weather Stations Pressure Air Temp Water Temp Dewpoint Dewpoint Depression Visibility Wind Speed Wind Dir Waves Ship Positions

Independence

Owner: Sortwell, Inc. DBA AmNav Maritime Services, Oakland, CA. More information available from US FCC via Universal Licensing System and Coast Guard Vessel Documentation Center.

Last reported at 2016-May-29 16:31 UTC. Time now 2016-May-29 19:19 UTC.
Position N 33°44' W 118°13'.

Length 24 m; draft 4.9 m.

Type: Tug. MMSI: 367175860.

Date/timePositionNaut miles runAvg speedWind from/ knotsBaromVisibWave heightAir tempDewpointWater temp
2016-May-29 16:31N 33°44' W 118°13'2 1.6
2016-May-29 15:33N 33°45' W 118°13'1 0.8
2016-May-29 14:33N 33°46' W 118°13'1 1.2
2016-May-29 13:33N 33°45' W 118°13'3 3.2
2016-May-29 12:32N 33°44' W 118°17'0 0.0
2016-May-29 11:33N 33°44' W 118°17'0 0.0
2016-May-29 10:34N 33°44' W 118°17'0 0.0
2016-May-29 09:21N 33°44' W 118°17'0 0.0
2016-May-29 01:10N 33°44' W 118°17'0 0.0
2016-May-29 00:33N 33°44' W 118°17'0 0.0
2016-May-28 23:32N 33°44' W 118°17'0 0.0
2016-May-28 22:33N 33°44' W 118°17'0 0.0
2016-May-28 21:31N 33°44' W 118°17'0 0.0
2016-May-28 20:28N 33°44' W 118°17'3 0.8
2016-May-28 17:22N 33°44' W 118°13'2 1.9
2016-May-28 16:33N 33°45' W 118°13'0 0.1
2016-May-28 15:33N 33°45' W 118°13'3 2.8
2016-May-28 14:34N 33°44' W 118°10'3 3.1
2016-May-28 13:31N 33°43' W 118°14'1 1.2
2016-May-28 12:33N 33°44' W 118°15'2 0.0
2016-May-26 17:31N 33°45' W 118°13'0 0.0
2016-May-26 16:30N 33°45' W 118°13'0 0.0
2016-May-26 15:31N 33°45' W 118°13'0 0.0
2016-May-26 14:32N 33°45' W 118°13'0 0.0
2016-May-26 13:31N 33°45' W 118°13'0 0.0
2016-May-26 12:13N 33°45' W 118°13'0 0.0
2016-May-26 10:24N 33°45' W 118°13'0 0.0
2016-May-26 09:21N 33°45' W 118°13'0 0.0
2016-May-26 08:24N 33°45' W 118°13'0 0.4
2016-May-26 07:27N 33°45' W 118°12'1 0.8
2016-May-26 06:10N 33°44' W 118°12'1 1.7
2016-May-26 05:33N 33°45' W 118°12'4 0.4
2016-May-25 20:25N 33°44' W 118°17'1 1.6
2016-May-25 19:33N 33°45' W 118°16'2 0.2
2016-May-25 13:16N 33°44' W 118°17'3 3.7
2016-May-25 12:33N 33°45' W 118°14'0 0.4
2016-May-25 11:34N 33°45' W 118°13'3 0.2
2016-May-24 18:33N 33°44' W 118°17'0 0.1
2016-May-24 16:14N 33°44' W 118°16'2 2.6
2016-May-24 15:33N 33°45' W 118°16'0 0.2
2016-May-24 14:10N 33°45' W 118°16'3 0.6
2016-May-24 09:10N 33°43' W 118°13'2 2.7
2016-May-24 08:33N 33°45' W 118°13'  
2016-May-20 18:05N 33°46' W 118°17'3 1.1
2016-May-20 15:33N 33°46' W 118°13'1 0.7
2016-May-20 14:33N 33°46' W 118°13'4 1.3
2016-May-20 11:24N 33°44' W 118°17'0 0.0
2016-May-20 09:32N 33°44' W 118°17'3 0.4
2016-May-20 01:33N 33°46' W 118°13'1 0.8
2016-May-20 00:33N 33°46' W 118°14'0 0.1
2016-May-19 23:33N 33°46' W 118°14'2 2.1
2016-May-19 22:32N 33°45' W 118°12'1 0.9
2016-May-19 21:27N 33°44' W 118°12'4 0.7
2016-May-19 16:33N 33°45' W 118°16'  
Track history (hours):
 
Tides and Currents Weather Stations Pressure Air Temp Water Temp Dewpoint Dewpoint Depression Visibility Wind Speed Wind Dir Waves Ship Positions

Independence

Owner: Sortwell, Inc. DBA AmNav Maritime Services, Oakland, CA. More information available from US FCC via Universal Licensing System and Coast Guard Vessel Documentation Center.

Last reported at 2016-May-29 16:31 UTC. Time now 2016-May-29 19:19 UTC.
Position N 33°44' W 118°13'.

Length 24 m; draft 4.9 m.

Type: Tug. MMSI: 367175860.

Date/timePositionNaut miles runAvg speedWind from/ knotsBaromVisibWave heightAir tempDewpointWater temp
2016-May-29 16:31N 33°44' W 118°13'2 1.6
2016-May-29 15:33N 33°45' W 118°13'1 0.8
2016-May-29 14:33N 33°46' W 118°13'1 1.2
2016-May-29 13:33N 33°45' W 118°13'3 3.2
2016-May-29 12:32N 33°44' W 118°17'0 0.0
2016-May-29 11:33N 33°44' W 118°17'0 0.0
2016-May-29 10:34N 33°44' W 118°17'0 0.0
2016-May-29 09:21N 33°44' W 118°17'0 0.0
2016-May-29 01:10N 33°44' W 118°17'0 0.0
2016-May-29 00:33N 33°44' W 118°17'0 0.0
2016-May-28 23:32N 33°44' W 118°17'0 0.0
2016-May-28 22:33N 33°44' W 118°17'0 0.0
2016-May-28 21:31N 33°44' W 118°17'0 0.0
2016-May-28 20:28N 33°44' W 118°17'3 0.8
2016-May-28 17:22N 33°44' W 118°13'2 1.9
2016-May-28 16:33N 33°45' W 118°13'0 0.1
2016-May-28 15:33N 33°45' W 118°13'3 2.8
2016-May-28 14:34N 33°44' W 118°10'3 3.1
2016-May-28 13:31N 33°43' W 118°14'1 1.2
2016-May-28 12:33N 33°44' W 118°15'2 0.0
2016-May-26 17:31N 33°45' W 118°13'0 0.0
2016-May-26 16:30N 33°45' W 118°13'0 0.0
2016-May-26 15:31N 33°45' W 118°13'0 0.0
2016-May-26 14:32N 33°45' W 118°13'0 0.0
2016-May-26 13:31N 33°45' W 118°13'0 0.0
2016-May-26 12:13N 33°45' W 118°13'0 0.0
2016-May-26 10:24N 33°45' W 118°13'0 0.0
2016-May-26 09:21N 33°45' W 118°13'0 0.0
2016-May-26 08:24N 33°45' W 118°13'0 0.4
2016-May-26 07:27N 33°45' W 118°12'1 0.8
2016-May-26 06:10N 33°44' W 118°12'1 1.7
2016-May-26 05:33N 33°45' W 118°12'4 0.4
2016-May-25 20:25N 33°44' W 118°17'1 1.6
2016-May-25 19:33N 33°45' W 118°16'2 0.2
2016-May-25 13:16N 33°44' W 118°17'3 3.7
2016-May-25 12:33N 33°45' W 118°14'0 0.4
2016-May-25 11:34N 33°45' W 118°13'3 0.2
2016-May-24 18:33N 33°44' W 118°17'0 0.1
2016-May-24 16:14N 33°44' W 118°16'2 2.6
2016-May-24 15:33N 33°45' W 118°16'0 0.2
2016-May-24 14:10N 33°45' W 118°16'3 0.6
2016-May-24 09:10N 33°43' W 118°13'2 2.7
2016-May-24 08:33N 33°45' W 118°13'  
2016-May-20 18:05N 33°46' W 118°17'3 1.1
2016-May-20 15:33N 33°46' W 118°13'1 0.7
2016-May-20 14:33N 33°46' W 118°13'4 1.3
2016-May-20 11:24N 33°44' W 118°17'0 0.0
2016-May-20 09:32N 33°44' W 118°17'3 0.4
2016-May-20 01:33N 33°46' W 118°13'1 0.8
2016-May-20 00:33N 33°46' W 118°14'0 0.1
2016-May-19 23:33N 33°46' W 118°14'2 2.1
2016-May-19 22:32N 33°45' W 118°12'1 0.9
2016-May-19 21:27N 33°44' W 118°12'4 0.7
2016-May-19 16:33N 33°45' W 118°16'  

Dump ship's entire track history